sensor_id;sensor_type;location;lat;lon;timestamp;temperature;humidity
16437;DHT22;8328;52.206;21.006;2022-08-01T00:00:23;16.00;99.90
16437;DHT22;8328;52.206;21.006;2022-08-01T00:02:48;16.10;99.90
16437;DHT22;8328;52.206;21.006;2022-08-01T00:05:14;16.20;99.90
16437;DHT22;8328;52.206;21.006;2022-08-01T00:07:40;16.10;99.90
16437;DHT22;8328;52.206;21.006;2022-08-01T00:10:09;16.10;99.90
16437;DHT22;8328;52.206;21.006;2022-08-01T00:12:35;16.10;99.90
16437;DHT22;8328;52.206;21.006;2022-08-01T00:15:02;16.00;99.90
16437;DHT22;8328;52.206;21.006;2022-08-01T00:17:28;16.00;99.90
16437;DHT22;8328;52.206;21.006;2022-08-01T00:19:54;16.00;99.90
16437;DHT22;8328;52.206;21.006;2022-08-01T00:25:04;16.00;99.90
16437;DHT22;8328;52.206;21.006;2022-08-01T00:27:30;15.90;99.90
16437;DHT22;8328;52.206;21.006;2022-08-01T00:29:57;15.90;99.90
16437;DHT22;8328;52.206;21.006;2022-08-01T00:32:23;15.90;99.90
16437;DHT22;8328;52.206;21.006;2022-08-01T00:34:49;15.90;99.90
16437;DHT22;8328;52.206;21.006;2022-08-01T00:37:15;15.90;99.90
16437;DHT22;8328;52.206;21.006;2022-08-01T00:39:40;15.80;99.90
16437;DHT22;8328;52.206;21.006;2022-08-01T00:42:10;15.80;99.90
16437;DHT22;8328;52.206;21.006;2022-08-01T00:44:37;15.80;99.90
16437;DHT22;8328;52.206;21.006;2022-08-01T00:47:04;15.80;99.90
16437;DHT22;8328;52.206;21.006;2022-08-01T00:49:30;15.80;99.90
16437;DHT22;8328;52.206;21.006;2022-08-01T00:51:56;15.80;99.90
16437;DHT22;8328;52.206;21.006;2022-08-01T00:54:24;15.70;99.90
16437;DHT22;8328;52.206;21.006;2022-08-01T00:56:50;15.70;99.90
16437;DHT22;8328;52.206;21.006;2022-08-01T00:59:24;15.70;99.90
16437;DHT22;8328;52.206;21.006;2022-08-01T01:01:50;15.60;99.90
16437;DHT22;8328;52.206;21.006;2022-08-01T01:04:17;15.60;99.90
16437;DHT22;8328;52.206;21.006;2022-08-01T01:09:56;15.60;99.90
16437;DHT22;8328;52.206;21.006;2022-08-01T01:15:34;15.50;99.90
16437;DHT22;8328;52.206;21.006;2022-08-01T01:18:09;15.50;99.90
16437;DHT22;8328;52.206;21.006;2022-08-01T01:20:40;15.50;99.90
16437;DHT22;8328;52.206;21.006;2022-08-01T01:23:29;15.50;99.90
16437;DHT22;8328;52.206;21.006;2022-08-01T01:32:00;15.30;99.90
16437;DHT22;8328;52.206;21.006;2022-08-01T01:34:28;15.30;99.90
16437;DHT22;8328;52.206;21.006;2022-08-01T01:36:54;15.30;99.90
16437;DHT22;8328;52.206;21.006;2022-08-01T01:39:24;15.20;99.90
16437;DHT22;8328;52.206;21.006;2022-08-01T01:41:52;15.20;99.90
16437;DHT22;8328;52.206;21.006;2022-08-01T01:44:19;15.10;99.90
16437;DHT22;8328;52.206;21.006;2022-08-01T01:46:46;15.10;99.90
16437;DHT22;8328;52.206;21.006;2022-08-01T01:49:14;14.00;99.90
16437;DHT22;8328;52.206;21.006;2022-08-01T01:51:40;14.90;99.90
16437;DHT22;8328;52.206;21.006;2022-08-01T01:54:08;14.90;99.90
16437;DHT22;8328;52.206;21.006;2022-08-01T01:56:36;14.80;99.90
16437;DHT22;8328;52.206;21.006;2022-08-01T01:59:15;14.80;99.90
16437;DHT22;8328;52.206;21.006;2022-08-01T02:01:42;14.60;99.90
16437;DHT22;8328;52.206;21.006;2022-08-01T02:04:10;14.60;99.90
16437;DHT22;8328;52.206;21.006;2022-08-01T02:06:37;14.60;99.90
16437;DHT22;8328;52.206;21.006;2022-08-01T02:09:04;14.50;99.90
16437;DHT22;8328;52.206;21.006;2022-08-01T02:11:31;14.50;99.90
16437;DHT22;8328;52.206;21.006;2022-08-01T02:14:01;14.40;99.90
16437;DHT22;8328;52.206;21.006;2022-08-01T02:16:29;14.40;99.90
16437;DHT22;8328;52.206;21.006;2022-08-01T02:18:55;14.40;99.90
16437;DHT22;8328;52.206;21.006;2022-08-01T02:21:30;14.40;99.90
16437;DHT22;8328;52.206;21.006;2022-08-01T02:24:36;14.30;99.90
16437;DHT22;8328;52.206;21.006;2022-08-01T02:26:58;14.30;99.90
16437;DHT22;8328;52.206;21.006;2022-08-01T02:29:31;14.20;99.90
16437;DHT22;8328;52.206;21.006;2022-08-01T02:32:00;14.20;99.90
16437;DHT22;8328;52.206;21.006;2022-08-01T02:34:29;14.10;99.90
16437;DHT22;8328;52.206;21.006;2022-08-01T02:36:59;14.10;99.90
16437;DHT22;8328;52.206;21.006;2022-08-01T02:39:27;14.10;99.90
16437;DHT22;8328;52.206;21.006;2022-08-01T02:41:59;14.00;99.90
16437;DHT22;8328;52.206;21.006;2022-08-01T02:44:33;14.00;99.90
16437;DHT22;8328;52.206;21.006;2022-08-01T02:47:02;14.00;99.90
16437;DHT22;8328;52.206;21.006;2022-08-01T02:49:34;14.00;99.90
16437;DHT22;8328;52.206;21.006;2022-08-01T02:52:04;13.90;99.90
16437;DHT22;8328;52.206;21.006;2022-08-01T02:54:33;13.90;99.90
16437;DHT22;8328;52.206;21.006;2022-08-01T02:57:00;13.90;99.90
16437;DHT22;8328;52.206;21.006;2022-08-01T02:59:28;13.90;99.90
16437;DHT22;8328;52.206;21.006;2022-08-01T03:01:56;13.90;99.90
16437;DHT22;8328;52.206;21.006;2022-08-01T03:04:24;13.90;99.90
16437;DHT22;8328;52.206;21.006;2022-08-01T03:06:52;13.80;99.90
16437;DHT22;8328;52.206;21.006;2022-08-01T03:09:19;13.80;99.90
16437;DHT22;8328;52.206;21.006;2022-08-01T03:11:47;13.80;99.90
16437;DHT22;8328;52.206;21.006;2022-08-01T03:14:14;13.00;99.90
16437;DHT22;8328;52.206;21.006;2022-08-01T03:16:42;13.80;99.90
16437;DHT22;8328;52.206;21.006;2022-08-01T03:19:11;13.80;99.90
16437;DHT22;8328;52.206;21.006;2022-08-01T03:21:40;13.80;99.90
16437;DHT22;8328;52.206;21.006;2022-08-01T03:24:08;13.80;99.90
16437;DHT22;8328;52.206;21.006;2022-08-01T03:26:36;13.70;99.90
16437;DHT22;8328;52.206;21.006;2022-08-01T03:29:10;13.80;99.90
16437;DHT22;8328;52.206;21.006;2022-08-01T03:31:38;13.80;99.90
16437;DHT22;8328;52.206;21.006;2022-08-01T03:34:08;13.80;99.90
16437;DHT22;8328;52.206;21.006;2022-08-01T03:36:42;13.80;99.90
16437;DHT22;8328;52.206;21.006;2022-08-01T03:39:09;13.90;99.90
16437;DHT22;8328;52.206;21.006;2022-08-01T03:41:40;14.00;99.90
16437;DHT22;8328;52.206;21.006;2022-08-01T03:44:15;14.00;99.90
16437;DHT22;8328;52.206;21.006;2022-08-01T03:47:04;14.10;99.90
16437;DHT22;8328;52.206;21.006;2022-08-01T03:49:33;14.20;99.90
16437;DHT22;8328;52.206;21.006;2022-08-01T03:52:06;14.20;99.90
16437;DHT22;8328;52.206;21.006;2022-08-01T03:54:40;14.40;99.90
16437;DHT22;8328;52.206;21.006;2022-08-01T03:57:07;14.40;99.90
16437;DHT22;8328;52.206;21.006;2022-08-01T03:59:34;14.50;99.90
16437;DHT22;8328;52.206;21.006;2022-08-01T04:02:02;14.50;99.90
16437;DHT22;8328;52.206;21.006;2022-08-01T04:04:28;14.60;99.90
16437;DHT22;8328;52.206;21.006;2022-08-01T04:06:55;14.60;99.90
16437;DHT22;8328;52.206;21.006;2022-08-01T04:09:21;14.70;99.90
16437;DHT22;8328;52.206;21.006;2022-08-01T04:11:48;14.80;99.90
16437;DHT22;8328;52.206;21.006;2022-08-01T04:14:14;15.00;99.90
16437;DHT22;8328;52.206;21.006;2022-08-01T04:16:40;15.00;99.90
16437;DHT22;8328;52.206;21.006;2022-08-01T04:19:06;15.00;99.90
16437;DHT22;8328;52.206;21.006;2022-08-01T04:21:34;15.20;99.90
16437;DHT22;8328;52.206;21.006;2022-08-01T04:24:11;15.30;99.90
16437;DHT22;8328;52.206;21.006;2022-08-01T04:26:39;15.30;99.90
16437;DHT22;8328;52.206;21.006;2022-08-01T04:29:07;15.40;99.90
16437;DHT22;8328;52.206;21.006;2022-08-01T04:31:36;15.40;99.90
16437;DHT22;8328;52.206;21.006;2022-08-01T04:34:04;15.50;99.90
16437;DHT22;8328;52.206;21.006;2022-08-01T04:36:33;15.60;99.90
16437;DHT22;8328;52.206;21.006;2022-08-01T04:39:02;15.60;99.90
16437;DHT22;8328;52.206;21.006;2022-08-01T04:41:30;15.70;99.90
16437;DHT22;8328;52.206;21.006;2022-08-01T04:43:57;15.80;99.90
16437;DHT22;8328;52.206;21.006;2022-08-01T04:46:25;15.90;99.90
16437;DHT22;8328;52.206;21.006;2022-08-01T04:48:55;15.90;99.90
16437;DHT22;8328;52.206;21.006;2022-08-01T04:51:21;14.20;99.90
16437;DHT22;8328;52.206;21.006;2022-08-01T04:53:48;15.90;99.90
16437;DHT22;8328;52.206;21.006;2022-08-01T04:56:14;15.90;99.90
16437;DHT22;8328;52.206;21.006;2022-08-01T04:58:44;15.80;99.90
16437;DHT22;8328;52.206;21.006;2022-08-01T05:01:10;15.70;99.90
16437;DHT22;8328;52.206;21.006;2022-08-01T05:03:36;15.60;99.90
16437;DHT22;8328;52.206;21.006;2022-08-01T05:06:02;15.40;99.90
16437;DHT22;8328;52.206;21.006;2022-08-01T05:08:28;15.30;99.90
16437;DHT22;8328;52.206;21.006;2022-08-01T05:10:54;15.20;99.90
16437;DHT22;8328;52.206;21.006;2022-08-01T05:13:20;15.10;99.90
16437;DHT22;8328;52.206;21.006;2022-08-01T05:15:46;15.00;99.90
16437;DHT22;8328;52.206;21.006;2022-08-01T05:18:12;15.00;99.90
16437;DHT22;8328;52.206;21.006;2022-08-01T05:23:04;15.10;99.90
16437;DHT22;8328;52.206;21.006;2022-08-01T05:25:31;15.20;99.90
16437;DHT22;8328;52.206;21.006;2022-08-01T05:28:00;15.20;99.90
16437;DHT22;8328;52.206;21.006;2022-08-01T05:30:26;15.20;99.90
16437;DHT22;8328;52.206;21.006;2022-08-01T05:32:51;15.20;99.90
16437;DHT22;8328;52.206;21.006;2022-08-01T05:35:17;15.70;99.90
16437;DHT22;8328;52.206;21.006;2022-08-01T05:37:43;16.60;99.90
16437;DHT22;8328;52.206;21.006;2022-08-01T05:40:09;17.30;99.90
16437;DHT22;8328;52.206;21.006;2022-08-01T05:42:36;17.40;99.90
16437;DHT22;8328;52.206;21.006;2022-08-01T05:45:03;17.70;99.90
16437;DHT22;8328;52.206;21.006;2022-08-01T05:47:29;17.70;99.90
16437;DHT22;8328;52.206;21.006;2022-08-01T05:49:55;17.80;99.90
16437;DHT22;8328;52.206;21.006;2022-08-01T05:52:20;17.70;99.90
16437;DHT22;8328;52.206;21.006;2022-08-01T05:54:46;17.80;99.90
16437;DHT22;8328;52.206;21.006;2022-08-01T05:57:12;18.10;99.90
16437;DHT22;8328;52.206;21.006;2022-08-01T05:59:38;18.20;99.90
16437;DHT22;8328;52.206;21.006;2022-08-01T06:02:04;18.30;99.90
16437;DHT22;8328;52.206;21.006;2022-08-01T06:04:29;18.40;99.90
16437;DHT22;8328;52.206;21.006;2022-08-01T06:06:55;18.50;99.90
16437;DHT22;8328;52.206;21.006;2022-08-01T06:09:24;18.60;99.90
16437;DHT22;8328;52.206;21.006;2022-08-01T06:11:50;17.20;99.90
16437;DHT22;8328;52.206;21.006;2022-08-01T06:14:16;18.70;99.90
16437;DHT22;8328;52.206;21.006;2022-08-01T06:19:08;18.90;99.90
16437;DHT22;8328;52.206;21.006;2022-08-01T06:21:34;19.80;99.90
16437;DHT22;8328;52.206;21.006;2022-08-01T06:24:00;20.60;99.90
16437;DHT22;8328;52.206;21.006;2022-08-01T06:26:25;20.60;99.90
16437;DHT22;8328;52.206;21.006;2022-08-01T06:28:51;20.10;99.90
16437;DHT22;8328;52.206;21.006;2022-08-01T06:31:17;19.90;99.90
16437;DHT22;8328;52.206;21.006;2022-08-01T06:33:43;19.80;99.90
16437;DHT22;8328;52.206;21.006;2022-08-01T06:36:09;19.70;99.90
16437;DHT22;8328;52.206;21.006;2022-08-01T06:38:34;19.60;99.90
16437;DHT22;8328;52.206;21.006;2022-08-01T06:41:00;19.70;99.90
16437;DHT22;8328;52.206;21.006;2022-08-01T06:43:26;19.70;99.90
16437;DHT22;8328;52.206;21.006;2022-08-01T06:45:52;19.70;99.90
16437;DHT22;8328;52.206;21.006;2022-08-01T06:48:18;19.80;99.90
16437;DHT22;8328;52.206;21.006;2022-08-01T06:50:46;19.90;99.90
16437;DHT22;8328;52.206;21.006;2022-08-01T06:53:12;19.90;99.90
16437;DHT22;8328;52.206;21.006;2022-08-01T06:55:41;20.00;99.90
16437;DHT22;8328;52.206;21.006;2022-08-01T06:58:07;21.80;99.90
16437;DHT22;8328;52.206;21.006;2022-08-01T07:00:33;19.90;99.90
16437;DHT22;8328;52.206;21.006;2022-08-01T07:02:59;21.00;99.90
16437;DHT22;8328;52.206;21.006;2022-08-01T07:05:25;20.00;99.90
16437;DHT22;8328;52.206;21.006;2022-08-01T07:07:51;20.00;99.90
16437;DHT22;8328;52.206;21.006;2022-08-01T07:10:19;19.80;99.90
16437;DHT22;8328;52.206;21.006;2022-08-01T07:12:44;20.20;99.90
16437;DHT22;8328;52.206;21.006;2022-08-01T07:15:11;20.20;99.90
16437;DHT22;8328;52.206;21.006;2022-08-01T07:17:41;20.30;99.90
16437;DHT22;8328;52.206;21.006;2022-08-01T07:20:11;20.40;99.90
16437;DHT22;8328;52.206;21.006;2022-08-01T07:22:38;20.50;99.90
16437;DHT22;8328;52.206;21.006;2022-08-01T07:25:05;20.00;99.90
16437;DHT22;8328;52.206;21.006;2022-08-01T07:27:31;20.60;99.90
16437;DHT22;8328;52.206;21.006;2022-08-01T07:29:58;20.60;99.90
16437;DHT22;8328;52.206;21.006;2022-08-01T07:32:24;20.50;99.90
16437;DHT22;8328;52.206;21.006;2022-08-01T07:34:50;20.50;99.90
16437;DHT22;8328;52.206;21.006;2022-08-01T07:37:19;19.50;99.90
16437;DHT22;8328;52.206;21.006;2022-08-01T07:39:49;20.70;99.90
16437;DHT22;8328;52.206;21.006;2022-08-01T07:42:15;20.80;99.90
16437;DHT22;8328;52.206;21.006;2022-08-01T07:44:41;20.80;99.90
16437;DHT22;8328;52.206;21.006;2022-08-01T07:47:06;20.80;99.90
16437;DHT22;8328;52.206;21.006;2022-08-01T07:49:35;20.90;99.90
16437;DHT22;8328;52.206;21.006;2022-08-01T07:52:03;20.90;99.90
16437;DHT22;8328;52.206;21.006;2022-08-01T07:54:28;20.90;99.90
16437;DHT22;8328;52.206;21.006;2022-08-01T07:56:55;20.90;99.90
16437;DHT22;8328;52.206;21.006;2022-08-01T07:59:21;21.00;99.90
16437;DHT22;8328;52.206;21.006;2022-08-01T08:01:49;20.90;99.90
16437;DHT22;8328;52.206;21.006;2022-08-01T08:04:22;21.00;99.90
16437;DHT22;8328;52.206;21.006;2022-08-01T08:06:48;19.90;99.90
16437;DHT22;8328;52.206;21.006;2022-08-01T08:09:14;21.00;99.90
16437;DHT22;8328;52.206;21.006;2022-08-01T08:11:43;20.50;99.90
16437;DHT22;8328;52.206;21.006;2022-08-01T08:14:09;21.00;99.90
16437;DHT22;8328;52.206;21.006;2022-08-01T08:16:34;21.10;99.90
16437;DHT22;8328;52.206;21.006;2022-08-01T08:19:00;21.10;99.90
16437;DHT22;8328;52.206;21.006;2022-08-01T08:21:26;21.20;99.90
16437;DHT22;8328;52.206;21.006;2022-08-01T08:23:53;21.30;99.90
16437;DHT22;8328;52.206;21.006;2022-08-01T08:26:37;21.30;99.90
16437;DHT22;8328;52.206;21.006;2022-08-01T08:29:03;21.40;99.90
16437;DHT22;8328;52.206;21.006;2022-08-01T08:31:29;21.40;99.90
16437;DHT22;8328;52.206;21.006;2022-08-01T08:33:55;21.30;99.90
16437;DHT22;8328;52.206;21.006;2022-08-01T08:36:21;21.30;99.90
16437;DHT22;8328;52.206;21.006;2022-08-01T08:38:47;21.30;99.90
16437;DHT22;8328;52.206;21.006;2022-08-01T08:41:13;21.30;99.90
16437;DHT22;8328;52.206;21.006;2022-08-01T08:43:39;21.40;99.90
16437;DHT22;8328;52.206;21.006;2022-08-01T08:46:05;21.40;99.90
16437;DHT22;8328;52.206;21.006;2022-08-01T08:48:34;21.40;99.90
16437;DHT22;8328;52.206;21.006;2022-08-01T08:51:01;21.40;99.90
16437;DHT22;8328;52.206;21.006;2022-08-01T08:53:27;21.50;99.90
16437;DHT22;8328;52.206;21.006;2022-08-01T08:55:55;21.50;99.90
16437;DHT22;8328;52.206;21.006;2022-08-01T08:58:23;21.50;99.90
16437;DHT22;8328;52.206;21.006;2022-08-01T09:00:53;21.50;99.90
16437;DHT22;8328;52.206;21.006;2022-08-01T09:03:19;21.50;99.90
16437;DHT22;8328;52.206;21.006;2022-08-01T09:05:45;21.60;99.90
16437;DHT22;8328;52.206;21.006;2022-08-01T09:08:11;21.60;99.90
16437;DHT22;8328;52.206;21.006;2022-08-01T09:10:37;21.70;99.90
16437;DHT22;8328;52.206;21.006;2022-08-01T09:13:09;21.80;99.90
16437;DHT22;8328;52.206;21.006;2022-08-01T09:15:52;21.90;99.90
16437;DHT22;8328;52.206;21.006;2022-08-01T09:18:35;24.50;99.90
16437;DHT22;8328;52.206;21.006;2022-08-01T09:21:09;21.80;99.90
16437;DHT22;8328;52.206;21.006;2022-08-01T09:23:42;22.60;99.90
16437;DHT22;8328;52.206;21.006;2022-08-01T09:26:10;22.60;99.90
16437;DHT22;8328;52.206;21.006;2022-08-01T09:28:37;22.50;99.90
16437;DHT22;8328;52.206;21.006;2022-08-01T09:31:12;22.60;99.90
16437;DHT22;8328;52.206;21.006;2022-08-01T09:36:14;22.70;99.90
16437;DHT22;8328;52.206;21.006;2022-08-01T09:38:39;23.00;99.90
16437;DHT22;8328;52.206;21.006;2022-08-01T09:41:05;23.40;99.90
16437;DHT22;8328;52.206;21.006;2022-08-01T09:43:33;23.40;99.90
16437;DHT22;8328;52.206;21.006;2022-08-01T09:46:04;23.70;99.90
16437;DHT22;8328;52.206;21.006;2022-08-01T09:48:31;24.90;99.90
16437;DHT22;8328;52.206;21.006;2022-08-01T09:51:06;24.10;99.90
16437;DHT22;8328;52.206;21.006;2022-08-01T09:53:47;24.20;99.90
16437;DHT22;8328;52.206;21.006;2022-08-01T09:56:13;24.50;99.90
16437;DHT22;8328;52.206;21.006;2022-08-01T09:58:52;27.20;99.90
16437;DHT22;8328;52.206;21.006;2022-08-01T10:01:21;24.40;99.90
16437;DHT22;8328;52.206;21.006;2022-08-01T10:03:54;24.50;99.90
16437;DHT22;8328;52.206;21.006;2022-08-01T10:06:34;24.50;99.90
16437;DHT22;8328;52.206;21.006;2022-08-01T10:09:03;24.50;99.90
16437;DHT22;8328;52.206;21.006;2022-08-01T10:11:29;24.40;99.90
16437;DHT22;8328;52.206;21.006;2022-08-01T10:14:00;24.60;99.90
16437;DHT22;8328;52.206;21.006;2022-08-01T10:16:26;24.70;99.90
16437;DHT22;8328;52.206;21.006;2022-08-01T10:18:57;24.70;99.90
16437;DHT22;8328;52.206;21.006;2022-08-01T10:21:24;24.70;99.90
16437;DHT22;8328;52.206;21.006;2022-08-01T10:23:55;24.70;99.90
16437;DHT22;8328;52.206;21.006;2022-08-01T10:26:24;24.60;99.90
16437;DHT22;8328;52.206;21.006;2022-08-01T10:28:51;24.60;99.90
16437;DHT22;8328;52.206;21.006;2022-08-01T10:31:19;24.90;99.90
16437;DHT22;8328;52.206;21.006;2022-08-01T10:33:48;25.00;99.90
16437;DHT22;8328;52.206;21.006;2022-08-01T10:36:19;25.30;99.90
16437;DHT22;8328;52.206;21.006;2022-08-01T10:38:46;25.50;99.90
16437;DHT22;8328;52.206;21.006;2022-08-01T10:41:13;26.10;99.90
16437;DHT22;8328;52.206;21.006;2022-08-01T10:43:42;26.40;99.90
16437;DHT22;8328;52.206;21.006;2022-08-01T10:46:08;26.70;99.90
16437;DHT22;8328;52.206;21.006;2022-08-01T10:48:56;26.50;99.90
16437;DHT22;8328;52.206;21.006;2022-08-01T10:51:24;26.70;99.90
16437;DHT22;8328;52.206;21.006;2022-08-01T10:53:52;27.00;99.90
16437;DHT22;8328;52.206;21.006;2022-08-01T10:56:19;26.70;99.90
16437;DHT22;8328;52.206;21.006;2022-08-01T10:58:47;26.40;99.90
16437;DHT22;8328;52.206;21.006;2022-08-01T11:03:44;26.60;99.90
16437;DHT22;8328;52.206;21.006;2022-08-01T11:06:17;27.20;99.90
16437;DHT22;8328;52.206;21.006;2022-08-01T11:08:53;27.30;99.90
16437;DHT22;8328;52.206;21.006;2022-08-01T11:11:20;27.40;99.90
16437;DHT22;8328;52.206;21.006;2022-08-01T11:14:05;27.20;99.90
16437;DHT22;8328;52.206;21.006;2022-08-01T11:16:43;27.30;99.90
16437;DHT22;8328;52.206;21.006;2022-08-01T11:19:09;26.70;99.90
16437;DHT22;8328;52.206;21.006;2022-08-01T11:32:51;28.60;96.70
16437;DHT22;8328;52.206;21.006;2022-08-01T11:38:26;29.60;93.80
16437;DHT22;8328;52.206;21.006;2022-08-01T11:41:14;29.90;89.70
16437;DHT22;8328;52.206;21.006;2022-08-01T11:44:02;30.20;85.00
16437;DHT22;8328;52.206;21.006;2022-08-01T11:46:51;30.80;83.30
16437;DHT22;8328;52.206;21.006;2022-08-01T11:52:09;32.20;75.90
16437;DHT22;8328;52.206;21.006;2022-08-01T11:54:39;32.00;69.70
16437;DHT22;8328;52.206;21.006;2022-08-01T11:57:12;32.20;71.00
16437;DHT22;8328;52.206;21.006;2022-08-01T11:59:39;32.60;69.60
16437;DHT22;8328;52.206;21.006;2022-08-01T12:02:15;32.80;68.00
16437;DHT22;8328;52.206;21.006;2022-08-01T12:04:46;33.20;63.40
16437;DHT22;8328;52.206;21.006;2022-08-01T12:07:14;32.90;62.00
16437;DHT22;8328;52.206;21.006;2022-08-01T12:09:39;32.50;59.30
16437;DHT22;8328;52.206;21.006;2022-08-01T12:12:06;31.50;61.40
16437;DHT22;8328;52.206;21.006;2022-08-01T12:14:32;31.40;62.80
16437;DHT22;8328;52.206;21.006;2022-08-01T12:16:58;31.90;63.50
16437;DHT22;8328;52.206;21.006;2022-08-01T12:19:24;32.70;63.10
16437;DHT22;8328;52.206;21.006;2022-08-01T12:22:12;32.60;58.70
16437;DHT22;8328;52.206;21.006;2022-08-01T12:24:40;32.50;58.20
16437;DHT22;8328;52.206;21.006;2022-08-01T12:27:08;32.50;58.20
16437;DHT22;8328;52.206;21.006;2022-08-01T12:29:42;33.00;57.90
16437;DHT22;8328;52.206;21.006;2022-08-01T12:34:52;33.10;55.70
16437;DHT22;8328;52.206;21.006;2022-08-01T12:37:18;33.80;55.40
16437;DHT22;8328;52.206;21.006;2022-08-01T12:39:45;34.80;54.50
16437;DHT22;8328;52.206;21.006;2022-08-01T12:42:13;36.00;53.00
16437;DHT22;8328;52.206;21.006;2022-08-01T12:44:40;36.90;50.20
16437;DHT22;8328;52.206;21.006;2022-08-01T12:47:07;37.50;48.70
16437;DHT22;8328;52.206;21.006;2022-08-01T12:49:35;39.30;44.70
16437;DHT22;8328;52.206;21.006;2022-08-01T12:52:03;41.60;41.20
16437;DHT22;8328;52.206;21.006;2022-08-01T12:54:29;39.30;38.60
16437;DHT22;8328;52.206;21.006;2022-08-01T12:56:58;38.00;40.60
16437;DHT22;8328;52.206;21.006;2022-08-01T12:59:30;40.30;39.00
16437;DHT22;8328;52.206;21.006;2022-08-01T13:02:08;42.30;35.60
16437;DHT22;8328;52.206;21.006;2022-08-01T13:04:50;43.50;31.50
16437;DHT22;8328;52.206;21.006;2022-08-01T13:07:17;44.60;29.10
16437;DHT22;8328;52.206;21.006;2022-08-01T13:09:50;44.50;26.40
16437;DHT22;8328;52.206;21.006;2022-08-01T13:12:16;43.30;25.70
16437;DHT22;8328;52.206;21.006;2022-08-01T13:14:42;43.60;25.10
16437;DHT22;8328;52.206;21.006;2022-08-01T13:17:08;43.80;24.90
16437;DHT22;8328;52.206;21.006;2022-08-01T13:19:44;44.20;24.70
16437;DHT22;8328;52.206;21.006;2022-08-01T13:22:10;44.00;24.20
16437;DHT22;8328;52.206;21.006;2022-08-01T13:24:36;44.60;23.80
16437;DHT22;8328;52.206;21.006;2022-08-01T13:27:03;44.40;22.80
16437;DHT22;8328;52.206;21.006;2022-08-01T13:29:33;44.20;22.60
16437;DHT22;8328;52.206;21.006;2022-08-01T13:32:11;44.40;22.30
16437;DHT22;8328;52.206;21.006;2022-08-01T13:34:38;44.80;22.70
16437;DHT22;8328;52.206;21.006;2022-08-01T13:37:04;45.40;21.80
16437;DHT22;8328;52.206;21.006;2022-08-01T13:39:30;46.10;21.20
16437;DHT22;8328;52.206;21.006;2022-08-01T13:42:15;46.30;20.40
16437;DHT22;8328;52.206;21.006;2022-08-01T13:44:42;46.10;19.40
16437;DHT22;8328;52.206;21.006;2022-08-01T13:47:10;43.00;21.20
16437;DHT22;8328;52.206;21.006;2022-08-01T13:49:36;44.10;21.20
16437;DHT22;8328;52.206;21.006;2022-08-01T13:52:03;44.90;20.50
16437;DHT22;8328;52.206;21.006;2022-08-01T13:54:31;45.30;20.00
16437;DHT22;8328;52.206;21.006;2022-08-01T13:56:57;43.70;19.90
16437;DHT22;8328;52.206;21.006;2022-08-01T13:59:23;43.50;21.10
16437;DHT22;8328;52.206;21.006;2022-08-01T14:01:49;44.30;20.40
16437;DHT22;8328;52.206;21.006;2022-08-01T14:04:15;45.00;20.20
16437;DHT22;8328;52.206;21.006;2022-08-01T14:06:41;45.90;19.20
16437;DHT22;8328;52.206;21.006;2022-08-01T14:09:07;46.90;18.80
16437;DHT22;8328;52.206;21.006;2022-08-01T14:11:34;47.80;18.30
16437;DHT22;8328;52.206;21.006;2022-08-01T14:14:00;48.40;17.70
16437;DHT22;8328;52.206;21.006;2022-08-01T14:16:26;49.20;16.90
16437;DHT22;8328;52.206;21.006;2022-08-01T14:18:51;48.90;16.00
16437;DHT22;8328;52.206;21.006;2022-08-01T14:21:17;48.30;15.70
16437;DHT22;8328;52.206;21.006;2022-08-01T14:23:44;46.90;15.60
16437;DHT22;8328;52.206;21.006;2022-08-01T14:26:10;46.10;16.50
16437;DHT22;8328;52.206;21.006;2022-08-01T14:28:37;45.20;16.80
16437;DHT22;8328;52.206;21.006;2022-08-01T14:31:04;40.80;19.40
16437;DHT22;8328;52.206;21.006;2022-08-01T14:33:33;38.90;22.60
16437;DHT22;8328;52.206;21.006;2022-08-01T14:35:59;41.80;20.90
16437;DHT22;8328;52.206;21.006;2022-08-01T14:38:26;43.80;18.40
16437;DHT22;8328;52.206;21.006;2022-08-01T14:40:52;46.50;17.40
16437;DHT22;8328;52.206;21.006;2022-08-01T14:43:19;47.00;16.30
16437;DHT22;8328;52.206;21.006;2022-08-01T14:45:48;44.60;16.40
16437;DHT22;8328;52.206;21.006;2022-08-01T14:48:16;42.40;18.40
16437;DHT22;8328;52.206;21.006;2022-08-01T14:50:43;39.50;20.50
16437;DHT22;8328;52.206;21.006;2022-08-01T14:53:09;37.30;22.80
16437;DHT22;8328;52.206;21.006;2022-08-01T14:55:35;36.60;24.30
16437;DHT22;8328;52.206;21.006;2022-08-01T14:58:01;35.50;25.00
16437;DHT22;8328;52.206;21.006;2022-08-01T15:02:53;33.50;27.60
16437;DHT22;8328;52.206;21.006;2022-08-01T15:05:19;32.80;29.30
16437;DHT22;8328;52.206;21.006;2022-08-01T15:15:04;30.20;34.10
16437;DHT22;8328;52.206;21.006;2022-08-01T15:17:32;29.80;35.70
16437;DHT22;8328;52.206;21.006;2022-08-01T15:20:00;29.30;36.40
16437;DHT22;8328;52.206;21.006;2022-08-01T15:22:28;29.30;37.00
16437;DHT22;8328;52.206;21.006;2022-08-01T15:24:57;29.10;37.60
16437;DHT22;8328;52.206;21.006;2022-08-01T15:32:16;28.90;38.80
16437;DHT22;8328;52.206;21.006;2022-08-01T15:34:42;29.00;39.80
16437;DHT22;8328;52.206;21.006;2022-08-01T15:37:09;28.90;39.40
16437;DHT22;8328;52.206;21.006;2022-08-01T15:42:08;28.80;40.10
16437;DHT22;8328;52.206;21.006;2022-08-01T15:47:01;28.50;41.00
16437;DHT22;8328;52.206;21.006;2022-08-01T15:56:47;28.00;44.20
16437;DHT22;8328;52.206;21.006;2022-08-01T15:59:13;27.80;45.40
16437;DHT22;8328;52.206;21.006;2022-08-01T16:01:39;27.80;45.90
16437;DHT22;8328;52.206;21.006;2022-08-01T16:04:06;27.80;45.80
16437;DHT22;8328;52.206;21.006;2022-08-01T16:06:33;28.00;45.40
16437;DHT22;8328;52.206;21.006;2022-08-01T16:09:03;28.10;45.50
16437;DHT22;8328;52.206;21.006;2022-08-01T16:11:29;27.90;45.10
16437;DHT22;8328;52.206;21.006;2022-08-01T16:13:59;27.70;45.00
16437;DHT22;8328;52.206;21.006;2022-08-01T16:16:26;27.50;45.50
16437;DHT22;8328;52.206;21.006;2022-08-01T16:18:52;27.30;45.80
16437;DHT22;8328;52.206;21.006;2022-08-01T16:21:18;27.10;46.30
16437;DHT22;8328;52.206;21.006;2022-08-01T16:23:44;27.00;46.60
16437;DHT22;8328;52.206;21.006;2022-08-01T16:26:11;26.90;46.50
16437;DHT22;8328;52.206;21.006;2022-08-01T16:28:38;26.70;46.80
16437;DHT22;8328;52.206;21.006;2022-08-01T16:31:04;26.40;46.80
16437;DHT22;8328;52.206;21.006;2022-08-01T16:33:30;26.10;47.00
16437;DHT22;8328;52.206;21.006;2022-08-01T16:35:57;25.90;47.00
16437;DHT22;8328;52.206;21.006;2022-08-01T16:38:23;25.70;47.20
16437;DHT22;8328;52.206;21.006;2022-08-01T16:40:50;25.50;47.70
16437;DHT22;8328;52.206;21.006;2022-08-01T16:43:17;25.30;48.40
16437;DHT22;8328;52.206;21.006;2022-08-01T16:45:44;25.20;49.10
16437;DHT22;8328;52.206;21.006;2022-08-01T16:48:11;25.10;49.70